sensor_id;sensor_type;location;lat;lon;timestamp;P1;durP1;ratioP1;P2;durP2;ratioP2
1402;SDS011;696;48.546;9.896;2022-11-20T00:00:37;4.75;;;2.85;;
1402;SDS011;696;48.546;9.896;2022-11-20T00:03:02;7.15;;;3.30;;
1402;SDS011;696;48.546;9.896;2022-11-20T00:05:28;5.03;;;3.00;;
1402;SDS011;696;48.546;9.896;2022-11-20T00:07:53;6.20;;;2.95;;
1402;SDS011;696;48.546;9.896;2022-11-20T00:10:18;5.45;;;3.38;;
1402;SDS011;696;48.546;9.896;2022-11-20T00:12:44;4.55;;;3.08;;
1402;SDS011;696;48.546;9.896;2022-11-20T00:15:09;8.77;;;3.28;;
1402;SDS011;696;48.546;9.896;2022-11-20T00:17:35;3.60;;;2.90;;
1402;SDS011;696;48.546;9.896;2022-11-20T00:20:00;3.90;;;3.22;;
1402;SDS011;696;48.546;9.896;2022-11-20T00:22:26;5.53;;;3.10;;
1402;SDS011;696;48.546;9.896;2022-11-20T00:24:51;3.72;;;3.05;;
1402;SDS011;696;48.546;9.896;2022-11-20T00:27:16;5.25;;;2.97;;
1402;SDS011;696;48.546;9.896;2022-11-20T00:29:41;4.55;;;3.22;;
1402;SDS011;696;48.546;9.896;2022-11-20T00:32:07;5.97;;;3.28;;
1402;SDS011;696;48.546;9.896;2022-11-20T00:34:32;6.35;;;3.40;;
1402;SDS011;696;48.546;9.896;2022-11-20T00:36:57;5.45;;;2.72;;
1402;SDS011;696;48.546;9.896;2022-11-20T00:39:23;4.43;;;2.88;;
1402;SDS011;696;48.546;9.896;2022-11-20T00:41:48;4.60;;;3.20;;
1402;SDS011;696;48.546;9.896;2022-11-20T00:44:14;4.63;;;2.97;;
1402;SDS011;696;48.546;9.896;2022-11-20T00:46:39;6.15;;;3.30;;
1402;SDS011;696;48.546;9.896;2022-11-20T00:49:04;4.72;;;2.97;;
1402;SDS011;696;48.546;9.896;2022-11-20T00:51:30;6.28;;;3.33;;
1402;SDS011;696;48.546;9.896;2022-11-20T00:53:56;5.72;;;3.08;;
1402;SDS011;696;48.546;9.896;2022-11-20T00:56:22;4.10;;;2.95;;
1402;SDS011;696;48.546;9.896;2022-11-20T00:58:48;3.78;;;3.10;;
1402;SDS011;696;48.546;9.896;2022-11-20T01:01:14;3.50;;;2.63;;
1402;SDS011;696;48.546;9.896;2022-11-20T01:03:45;4.88;;;3.00;;
1402;SDS011;696;48.546;9.896;2022-11-20T01:06:14;4.10;;;2.95;;
1402;SDS011;696;48.546;9.896;2022-11-20T01:08:50;4.05;;;2.67;;
1402;SDS011;696;48.546;9.896;2022-11-20T01:11:19;3.47;;;2.35;;
1402;SDS011;696;48.546;9.896;2022-11-20T01:13:47;3.60;;;2.65;;
1402;SDS011;696;48.546;9.896;2022-11-20T01:16:15;3.63;;;2.90;;
1402;SDS011;696;48.546;9.896;2022-11-20T01:18:42;4.45;;;3.15;;
1402;SDS011;696;48.546;9.896;2022-11-20T01:21:14;4.60;;;2.70;;
1402;SDS011;696;48.546;9.896;2022-11-20T01:23:43;3.95;;;2.80;;
1402;SDS011;696;48.546;9.896;2022-11-20T01:26:11;3.50;;;2.53;;
1402;SDS011;696;48.546;9.896;2022-11-20T01:28:37;4.00;;;2.75;;
1402;SDS011;696;48.546;9.896;2022-11-20T01:31:17;4.55;;;2.85;;
1402;SDS011;696;48.546;9.896;2022-11-20T01:33:43;5.55;;;3.40;;
1402;SDS011;696;48.546;9.896;2022-11-20T01:36:10;6.85;;;2.88;;
1402;SDS011;696;48.546;9.896;2022-11-20T01:38:35;5.20;;;2.75;;
1402;SDS011;696;48.546;9.896;2022-11-20T01:41:01;4.10;;;2.50;;
1402;SDS011;696;48.546;9.896;2022-11-20T01:43:27;7.70;;;2.88;;
1402;SDS011;696;48.546;9.896;2022-11-20T01:51:21;4.82;;;2.92;;
1402;SDS011;696;48.546;9.896;2022-11-20T01:53:47;4.45;;;2.95;;
1402;SDS011;696;48.546;9.896;2022-11-20T01:56:13;4.68;;;3.20;;
1402;SDS011;696;48.546;9.896;2022-11-20T01:58:40;5.82;;;3.15;;
1402;SDS011;696;48.546;9.896;2022-11-20T02:01:09;4.13;;;3.25;;
1402;SDS011;696;48.546;9.896;2022-11-20T02:03:34;3.88;;;3.13;;
1402;SDS011;696;48.546;9.896;2022-11-20T02:08:35;5.68;;;3.15;;
1402;SDS011;696;48.546;9.896;2022-11-20T02:11:01;4.00;;;3.17;;
1402;SDS011;696;48.546;9.896;2022-11-20T02:13:27;4.28;;;2.97;;
1402;SDS011;696;48.546;9.896;2022-11-20T02:16:15;6.30;;;3.33;;
1402;SDS011;696;48.546;9.896;2022-11-20T02:18:43;4.88;;;2.85;;
1402;SDS011;696;48.546;9.896;2022-11-20T02:21:24;7.00;;;3.05;;
1402;SDS011;696;48.546;9.896;2022-11-20T02:26:38;2.75;;;2.35;;
1402;SDS011;696;48.546;9.896;2022-11-20T02:29:06;3.88;;;2.80;;
1402;SDS011;696;48.546;9.896;2022-11-20T02:31:35;5.50;;;3.25;;
1402;SDS011;696;48.546;9.896;2022-11-20T02:34:01;3.83;;;2.60;;
1402;SDS011;696;48.546;9.896;2022-11-20T02:36:27;5.72;;;3.03;;
1402;SDS011;696;48.546;9.896;2022-11-20T02:38:53;3.75;;;2.63;;
1402;SDS011;696;48.546;9.896;2022-11-20T02:41:18;4.03;;;2.80;;
1402;SDS011;696;48.546;9.896;2022-11-20T02:43:44;4.05;;;3.20;;
1402;SDS011;696;48.546;9.896;2022-11-20T02:46:09;7.88;;;2.75;;
1402;SDS011;696;48.546;9.896;2022-11-20T02:48:34;4.40;;;2.83;;
1402;SDS011;696;48.546;9.896;2022-11-20T02:51:00;3.97;;;2.95;;
1402;SDS011;696;48.546;9.896;2022-11-20T02:53:25;4.25;;;3.15;;
1402;SDS011;696;48.546;9.896;2022-11-20T02:55:51;6.47;;;2.70;;
1402;SDS011;696;48.546;9.896;2022-11-20T02:58:16;4.75;;;2.78;;
1402;SDS011;696;48.546;9.896;2022-11-20T03:00:41;4.40;;;2.63;;
1402;SDS011;696;48.546;9.896;2022-11-20T03:03:07;3.97;;;2.92;;
1402;SDS011;696;48.546;9.896;2022-11-20T03:05:32;2.83;;;2.40;;
1402;SDS011;696;48.546;9.896;2022-11-20T03:07:58;2.58;;;2.30;;
1402;SDS011;696;48.546;9.896;2022-11-20T03:10:23;3.15;;;2.58;;
1402;SDS011;696;48.546;9.896;2022-11-20T03:12:52;4.35;;;2.70;;
1402;SDS011;696;48.546;9.896;2022-11-20T03:15:19;4.65;;;2.92;;
1402;SDS011;696;48.546;9.896;2022-11-20T03:17:44;2.88;;;2.38;;
1402;SDS011;696;48.546;9.896;2022-11-20T03:20:10;3.22;;;2.40;;
1402;SDS011;696;48.546;9.896;2022-11-20T03:22:35;3.10;;;2.58;;
1402;SDS011;696;48.546;9.896;2022-11-20T03:25:00;2.90;;;2.45;;
1402;SDS011;696;48.546;9.896;2022-11-20T03:27:26;3.28;;;2.13;;
1402;SDS011;696;48.546;9.896;2022-11-20T03:29:51;2.33;;;2.13;;
1402;SDS011;696;48.546;9.896;2022-11-20T03:32:16;3.13;;;2.25;;
1402;SDS011;696;48.546;9.896;2022-11-20T03:34:42;3.83;;;2.08;;
1402;SDS011;696;48.546;9.896;2022-11-20T03:37:07;2.50;;;2.25;;
1402;SDS011;696;48.546;9.896;2022-11-20T03:39:32;3.65;;;2.60;;
1402;SDS011;696;48.546;9.896;2022-11-20T03:41:58;4.35;;;2.20;;
1402;SDS011;696;48.546;9.896;2022-11-20T03:44:23;4.38;;;2.38;;
1402;SDS011;696;48.546;9.896;2022-11-20T03:46:49;3.38;;;2.35;;
1402;SDS011;696;48.546;9.896;2022-11-20T03:49:14;4.55;;;2.60;;
1402;SDS011;696;48.546;9.896;2022-11-20T03:51:39;3.83;;;2.75;;
1402;SDS011;696;48.546;9.896;2022-11-20T03:54:05;4.65;;;2.85;;
1402;SDS011;696;48.546;9.896;2022-11-20T03:56:33;4.20;;;2.72;;
1402;SDS011;696;48.546;9.896;2022-11-20T03:59:03;4.03;;;2.80;;
1402;SDS011;696;48.546;9.896;2022-11-20T04:01:34;3.55;;;2.70;;
1402;SDS011;696;48.546;9.896;2022-11-20T04:04:00;3.08;;;2.58;;
1402;SDS011;696;48.546;9.896;2022-11-20T04:06:26;3.60;;;2.60;;
1402;SDS011;696;48.546;9.896;2022-11-20T04:08:54;2.40;;;2.13;;
1402;SDS011;696;48.546;9.896;2022-11-20T04:13:48;7.47;;;2.75;;
1402;SDS011;696;48.546;9.896;2022-11-20T04:16:14;4.25;;;2.95;;
1402;SDS011;696;48.546;9.896;2022-11-20T04:18:40;5.88;;;2.92;;
1402;SDS011;696;48.546;9.896;2022-11-20T04:21:06;5.00;;;3.10;;
1402;SDS011;696;48.546;9.896;2022-11-20T04:23:31;4.32;;;2.85;;
1402;SDS011;696;48.546;9.896;2022-11-20T04:26:04;3.08;;;2.63;;
1402;SDS011;696;48.546;9.896;2022-11-20T04:28:30;6.88;;;2.70;;
1402;SDS011;696;48.546;9.896;2022-11-20T04:31:03;3.97;;;2.40;;
1402;SDS011;696;48.546;9.896;2022-11-20T04:33:33;3.88;;;2.75;;
1402;SDS011;696;48.546;9.896;2022-11-20T04:36:15;3.17;;;2.53;;
1402;SDS011;696;48.546;9.896;2022-11-20T04:38:42;3.95;;;2.67;;
1402;SDS011;696;48.546;9.896;2022-11-20T04:41:09;3.47;;;2.72;;
1402;SDS011;696;48.546;9.896;2022-11-20T04:43:39;5.93;;;3.08;;
1402;SDS011;696;48.546;9.896;2022-11-20T04:46:04;7.03;;;3.63;;
1402;SDS011;696;48.546;9.896;2022-11-20T04:48:30;9.23;;;4.22;;
1402;SDS011;696;48.546;9.896;2022-11-20T04:50:55;8.15;;;4.38;;
1402;SDS011;696;48.546;9.896;2022-11-20T04:53:21;20.55;;;4.55;;
1402;SDS011;696;48.546;9.896;2022-11-20T04:55:47;17.60;;;4.82;;
1402;SDS011;696;48.546;9.896;2022-11-20T04:58:12;6.80;;;3.55;;
1402;SDS011;696;48.546;9.896;2022-11-20T05:00:38;6.13;;;3.65;;
1402;SDS011;696;48.546;9.896;2022-11-20T05:03:03;3.80;;;3.15;;
1402;SDS011;696;48.546;9.896;2022-11-20T05:05:29;5.13;;;3.00;;
1402;SDS011;696;48.546;9.896;2022-11-20T05:07:58;4.75;;;2.88;;
1402;SDS011;696;48.546;9.896;2022-11-20T05:10:24;4.93;;;3.15;;
1402;SDS011;696;48.546;9.896;2022-11-20T05:12:50;5.95;;;3.45;;
1402;SDS011;696;48.546;9.896;2022-11-20T05:15:15;7.78;;;3.95;;
1402;SDS011;696;48.546;9.896;2022-11-20T05:17:40;19.83;;;3.85;;
1402;SDS011;696;48.546;9.896;2022-11-20T05:20:06;6.22;;;3.28;;
1402;SDS011;696;48.546;9.896;2022-11-20T05:22:32;9.68;;;3.92;;
1402;SDS011;696;48.546;9.896;2022-11-20T05:24:57;6.72;;;3.38;;
1402;SDS011;696;48.546;9.896;2022-11-20T05:27:23;8.13;;;3.55;;
1402;SDS011;696;48.546;9.896;2022-11-20T05:29:48;5.53;;;3.38;;
1402;SDS011;696;48.546;9.896;2022-11-20T05:32:13;7.70;;;3.72;;
1402;SDS011;696;48.546;9.896;2022-11-20T05:34:39;5.15;;;3.33;;
1402;SDS011;696;48.546;9.896;2022-11-20T05:37:04;4.10;;;3.08;;
1402;SDS011;696;48.546;9.896;2022-11-20T05:39:29;4.88;;;3.20;;
1402;SDS011;696;48.546;9.896;2022-11-20T05:41:55;5.88;;;4.30;;
1402;SDS011;696;48.546;9.896;2022-11-20T05:44:40;5.78;;;3.85;;
1402;SDS011;696;48.546;9.896;2022-11-20T05:47:06;5.63;;;3.95;;
1402;SDS011;696;48.546;9.896;2022-11-20T05:49:31;5.20;;;4.05;;
1402;SDS011;696;48.546;9.896;2022-11-20T05:51:57;6.60;;;3.88;;
1402;SDS011;696;48.546;9.896;2022-11-20T05:54:22;5.18;;;3.45;;
1402;SDS011;696;48.546;9.896;2022-11-20T05:56:48;6.38;;;3.60;;
1402;SDS011;696;48.546;9.896;2022-11-20T05:59:13;4.85;;;3.20;;
1402;SDS011;696;48.546;9.896;2022-11-20T06:01:38;5.10;;;3.13;;
1402;SDS011;696;48.546;9.896;2022-11-20T06:04:04;4.80;;;2.92;;
1402;SDS011;696;48.546;9.896;2022-11-20T06:06:29;4.57;;;3.50;;
1402;SDS011;696;48.546;9.896;2022-11-20T06:08:55;6.35;;;3.58;;
1402;SDS011;696;48.546;9.896;2022-11-20T06:11:20;3.78;;;2.58;;
1402;SDS011;696;48.546;9.896;2022-11-20T06:13:46;5.22;;;3.38;;
1402;SDS011;696;48.546;9.896;2022-11-20T06:16:12;5.07;;;3.13;;
1402;SDS011;696;48.546;9.896;2022-11-20T06:18:40;4.85;;;3.42;;
1402;SDS011;696;48.546;9.896;2022-11-20T06:21:08;4.72;;;3.03;;
1402;SDS011;696;48.546;9.896;2022-11-20T06:23:35;3.78;;;2.78;;
1402;SDS011;696;48.546;9.896;2022-11-20T06:26:02;6.25;;;2.72;;
1402;SDS011;696;48.546;9.896;2022-11-20T06:28:31;5.45;;;3.10;;
1402;SDS011;696;48.546;9.896;2022-11-20T06:30:56;3.42;;;2.80;;
1402;SDS011;696;48.546;9.896;2022-11-20T06:33:22;5.07;;;3.67;;
1402;SDS011;696;48.546;9.896;2022-11-20T06:35:48;4.78;;;3.10;;
1402;SDS011;696;48.546;9.896;2022-11-20T06:38:13;6.50;;;4.25;;
1402;SDS011;696;48.546;9.896;2022-11-20T06:40:42;7.10;;;3.80;;
1402;SDS011;696;48.546;9.896;2022-11-20T06:43:10;10.82;;;4.25;;
1402;SDS011;696;48.546;9.896;2022-11-20T06:45:35;4.22;;;3.47;;
1402;SDS011;696;48.546;9.896;2022-11-20T06:48:01;9.90;;;4.40;;
1402;SDS011;696;48.546;9.896;2022-11-20T06:50:27;5.97;;;3.72;;
1402;SDS011;696;48.546;9.896;2022-11-20T06:52:52;7.32;;;4.28;;
1402;SDS011;696;48.546;9.896;2022-11-20T06:55:17;7.18;;;4.20;;
1402;SDS011;696;48.546;9.896;2022-11-20T06:57:43;6.22;;;4.40;;
1402;SDS011;696;48.546;9.896;2022-11-20T07:00:08;6.05;;;4.00;;
1402;SDS011;696;48.546;9.896;2022-11-20T07:02:34;7.63;;;3.35;;
1402;SDS011;696;48.546;9.896;2022-11-20T07:04:59;5.53;;;3.55;;
1402;SDS011;696;48.546;9.896;2022-11-20T07:07:25;6.72;;;3.58;;
1402;SDS011;696;48.546;9.896;2022-11-20T07:09:50;4.82;;;3.15;;
1402;SDS011;696;48.546;9.896;2022-11-20T07:12:15;4.80;;;3.28;;
1402;SDS011;696;48.546;9.896;2022-11-20T07:14:41;5.55;;;2.40;;
1402;SDS011;696;48.546;9.896;2022-11-20T07:17:06;3.78;;;2.50;;
1402;SDS011;696;48.546;9.896;2022-11-20T07:19:32;8.32;;;2.80;;
1402;SDS011;696;48.546;9.896;2022-11-20T07:21:57;3.40;;;2.47;;
1402;SDS011;696;48.546;9.896;2022-11-20T07:24:22;2.92;;;2.30;;
1402;SDS011;696;48.546;9.896;2022-11-20T07:26:48;3.40;;;2.40;;
1402;SDS011;696;48.546;9.896;2022-11-20T07:29:16;2.83;;;2.22;;
1402;SDS011;696;48.546;9.896;2022-11-20T07:31:42;4.15;;;2.65;;
1402;SDS011;696;48.546;9.896;2022-11-20T07:34:08;2.75;;;2.40;;
1402;SDS011;696;48.546;9.896;2022-11-20T07:36:33;4.15;;;2.65;;
1402;SDS011;696;48.546;9.896;2022-11-20T07:38:59;2.85;;;2.30;;
1402;SDS011;696;48.546;9.896;2022-11-20T07:41:24;2.65;;;2.10;;
1402;SDS011;696;48.546;9.896;2022-11-20T07:43:49;3.55;;;2.65;;
1402;SDS011;696;48.546;9.896;2022-11-20T07:46:15;3.78;;;2.45;;
1402;SDS011;696;48.546;9.896;2022-11-20T07:48:40;2.38;;;2.00;;
1402;SDS011;696;48.546;9.896;2022-11-20T07:51:05;2.95;;;2.28;;
1402;SDS011;696;48.546;9.896;2022-11-20T07:53:31;4.72;;;2.60;;
1402;SDS011;696;48.546;9.896;2022-11-20T07:55:59;3.70;;;2.70;;
1402;SDS011;696;48.546;9.896;2022-11-20T07:58:25;2.80;;;2.40;;
1402;SDS011;696;48.546;9.896;2022-11-20T08:00:50;4.38;;;2.38;;
1402;SDS011;696;48.546;9.896;2022-11-20T08:03:15;2.00;;;1.88;;
1402;SDS011;696;48.546;9.896;2022-11-20T08:05:41;5.63;;;2.67;;
1402;SDS011;696;48.546;9.896;2022-11-20T08:08:06;4.32;;;2.63;;
1402;SDS011;696;48.546;9.896;2022-11-20T08:10:32;3.95;;;2.25;;
1402;SDS011;696;48.546;9.896;2022-11-20T08:12:58;3.50;;;2.42;;
1402;SDS011;696;48.546;9.896;2022-11-20T08:15:47;5.32;;;2.63;;
1402;SDS011;696;48.546;9.896;2022-11-20T08:18:13;5.32;;;3.15;;
1402;SDS011;696;48.546;9.896;2022-11-20T08:20:38;4.43;;;2.65;;
1402;SDS011;696;48.546;9.896;2022-11-20T08:23:05;4.20;;;2.47;;
1402;SDS011;696;48.546;9.896;2022-11-20T08:25:31;2.40;;;2.17;;
1402;SDS011;696;48.546;9.896;2022-11-20T08:27:58;6.60;;;2.72;;
1402;SDS011;696;48.546;9.896;2022-11-20T08:30:24;5.25;;;2.53;;
1402;SDS011;696;48.546;9.896;2022-11-20T08:32:49;5.72;;;2.45;;
1402;SDS011;696;48.546;9.896;2022-11-20T08:35:15;5.75;;;3.05;;
1402;SDS011;696;48.546;9.896;2022-11-20T08:37:40;4.60;;;3.40;;
1402;SDS011;696;48.546;9.896;2022-11-20T08:40:07;4.93;;;3.08;;
1402;SDS011;696;48.546;9.896;2022-11-20T08:42:35;4.85;;;3.17;;
1402;SDS011;696;48.546;9.896;2022-11-20T08:45:00;3.67;;;2.33;;
1402;SDS011;696;48.546;9.896;2022-11-20T08:47:25;3.03;;;2.33;;
1402;SDS011;696;48.546;9.896;2022-11-20T08:49:51;3.75;;;2.30;;
1402;SDS011;696;48.546;9.896;2022-11-20T08:52:16;3.63;;;2.72;;
1402;SDS011;696;48.546;9.896;2022-11-20T08:54:41;2.85;;;2.28;;
1402;SDS011;696;48.546;9.896;2022-11-20T08:57:07;3.58;;;2.67;;
1402;SDS011;696;48.546;9.896;2022-11-20T08:59:32;3.50;;;2.70;;
1402;SDS011;696;48.546;9.896;2022-11-20T09:01:57;2.42;;;1.77;;
1402;SDS011;696;48.546;9.896;2022-11-20T09:04:23;3.33;;;2.42;;
1402;SDS011;696;48.546;9.896;2022-11-20T09:06:49;3.92;;;2.13;;
1402;SDS011;696;48.546;9.896;2022-11-20T09:09:16;3.40;;;2.22;;
1402;SDS011;696;48.546;9.896;2022-11-20T09:11:42;2.10;;;1.63;;
1402;SDS011;696;48.546;9.896;2022-11-20T09:14:08;3.10;;;1.90;;
1402;SDS011;696;48.546;9.896;2022-11-20T09:16:33;1.85;;;1.52;;
1402;SDS011;696;48.546;9.896;2022-11-20T09:18:58;4.30;;;2.30;;
1402;SDS011;696;48.546;9.896;2022-11-20T09:21:24;1.75;;;1.63;;
1402;SDS011;696;48.546;9.896;2022-11-20T09:23:49;3.10;;;2.00;;
1402;SDS011;696;48.546;9.896;2022-11-20T09:26:15;3.60;;;1.65;;
1402;SDS011;696;48.546;9.896;2022-11-20T09:28:40;1.67;;;1.55;;
1402;SDS011;696;48.546;9.896;2022-11-20T09:31:06;1.50;;;1.40;;
1402;SDS011;696;48.546;9.896;2022-11-20T09:33:33;3.10;;;1.80;;
1402;SDS011;696;48.546;9.896;2022-11-20T09:35:58;2.22;;;1.80;;
1402;SDS011;696;48.546;9.896;2022-11-20T09:38:23;1.95;;;1.52;;
1402;SDS011;696;48.546;9.896;2022-11-20T09:46:04;2.42;;;1.70;;
1402;SDS011;696;48.546;9.896;2022-11-20T09:56:30;2.30;;;1.83;;
1402;SDS011;696;48.546;9.896;2022-11-20T09:58:57;1.60;;;1.38;;
1402;SDS011;696;48.546;9.896;2022-11-20T10:01:29;2.55;;;1.45;;
1402;SDS011;696;48.546;9.896;2022-11-20T10:04:02;1.90;;;1.70;;
1402;SDS011;696;48.546;9.896;2022-11-20T10:09:01;2.35;;;1.50;;
1402;SDS011;696;48.546;9.896;2022-11-20T10:22:21;4.18;;;1.63;;
1402;SDS011;696;48.546;9.896;2022-11-20T10:25:03;1.98;;;1.30;;
1402;SDS011;696;48.546;9.896;2022-11-20T10:30:33;1.48;;;1.38;;
1402;SDS011;696;48.546;9.896;2022-11-20T10:33:45;2.13;;;1.63;;
1402;SDS011;696;48.546;9.896;2022-11-20T10:36:02;2.00;;;1.70;;
1402;SDS011;696;48.546;9.896;2022-11-20T10:38:37;2.08;;;1.40;;
1402;SDS011;696;48.546;9.896;2022-11-20T10:41:05;1.67;;;1.35;;
1402;SDS011;696;48.546;9.896;2022-11-20T10:43:49;3.25;;;1.58;;
1402;SDS011;696;48.546;9.896;2022-11-20T10:46:20;2.13;;;1.70;;
1402;SDS011;696;48.546;9.896;2022-11-20T10:48:47;2.67;;;1.40;;
1402;SDS011;696;48.546;9.896;2022-11-20T10:59:41;2.10;;;1.60;;
1402;SDS011;696;48.546;9.896;2022-11-20T11:02:20;2.78;;;1.42;;
1402;SDS011;696;48.546;9.896;2022-11-20T11:04:48;2.22;;;1.65;;
1402;SDS011;696;48.546;9.896;2022-11-20T11:07:57;2.80;;;1.65;;
1402;SDS011;696;48.546;9.896;2022-11-20T11:10:12;2.40;;;1.70;;
1402;SDS011;696;48.546;9.896;2022-11-20T11:12:42;1.50;;;1.40;;
1402;SDS011;696;48.546;9.896;2022-11-20T11:15:24;3.22;;;1.90;;
1402;SDS011;696;48.546;9.896;2022-11-20T11:18:03;1.90;;;1.40;;
1402;SDS011;696;48.546;9.896;2022-11-20T11:20:29;1.77;;;1.58;;
1402;SDS011;696;48.546;9.896;2022-11-20T11:22:56;2.08;;;1.33;;
1402;SDS011;696;48.546;9.896;2022-11-20T11:25:35;1.17;;;1.08;;
1402;SDS011;696;48.546;9.896;2022-11-20T11:30:42;1.23;;;1.13;;
1402;SDS011;696;48.546;9.896;2022-11-20T11:33:18;0.80;;;0.80;;
1402;SDS011;696;48.546;9.896;2022-11-20T11:35:45;0.80;;;0.60;;
1402;SDS011;696;48.546;9.896;2022-11-20T11:38:14;0.75;;;0.73;;
1402;SDS011;696;48.546;9.896;2022-11-20T11:40:42;2.33;;;1.00;;
1402;SDS011;696;48.546;9.896;2022-11-20T11:43:16;0.60;;;0.60;;
1402;SDS011;696;48.546;9.896;2022-11-20T11:48:27;0.88;;;0.82;;
1402;SDS011;696;48.546;9.896;2022-11-20T11:50:52;0.52;;;0.52;;
1402;SDS011;696;48.546;9.896;2022-11-20T11:53:21;0.88;;;0.65;;
1402;SDS011;696;48.546;9.896;2022-11-20T11:56:08;0.80;;;0.80;;
1402;SDS011;696;48.546;9.896;2022-11-20T12:06:31;2.28;;;1.33;;
1402;SDS011;696;48.546;9.896;2022-11-20T12:09:02;1.95;;;1.10;;
1402;SDS011;696;48.546;9.896;2022-11-20T12:14:36;0.85;;;0.80;;
1402;SDS011;696;48.546;9.896;2022-11-20T12:17:03;3.15;;;1.13;;
1402;SDS011;696;48.546;9.896;2022-11-20T12:19:33;1.40;;;1.17;;
1402;SDS011;696;48.546;9.896;2022-11-20T12:30:22;3.47;;;0.95;;
1402;SDS011;696;48.546;9.896;2022-11-20T12:35:39;4.05;;;1.00;;
1402;SDS011;696;48.546;9.896;2022-11-20T12:50:52;3.65;;;1.60;;
1402;SDS011;696;48.546;9.896;2022-11-20T12:52:59;2.63;;;1.10;;
1402;SDS011;696;48.546;9.896;2022-11-20T12:55:50;1.33;;;1.13;;
1402;SDS011;696;48.546;9.896;2022-11-20T12:58:44;2.47;;;1.30;;
1402;SDS011;696;48.546;9.896;2022-11-20T13:01:30;2.75;;;1.10;;
1402;SDS011;696;48.546;9.896;2022-11-20T13:06:59;0.82;;;0.80;;
1402;SDS011;696;48.546;9.896;2022-11-20T13:09:27;2.97;;;0.73;;
1402;SDS011;696;48.546;9.896;2022-11-20T13:12:06;1.10;;;1.00;;
1402;SDS011;696;48.546;9.896;2022-11-20T13:14:53;2.83;;;1.20;;
1402;SDS011;696;48.546;9.896;2022-11-20T13:17:40;0.75;;;0.75;;
1402;SDS011;696;48.546;9.896;2022-11-20T13:20:12;1.77;;;0.95;;
1402;SDS011;696;48.546;9.896;2022-11-20T13:22:50;0.80;;;0.80;;
1402;SDS011;696;48.546;9.896;2022-11-20T13:25:26;0.98;;;0.77;;
1402;SDS011;696;48.546;9.896;2022-11-20T13:27:56;1.35;;;0.98;;
1402;SDS011;696;48.546;9.896;2022-11-20T13:30:50;0.80;;;0.60;;
1402;SDS011;696;48.546;9.896;2022-11-20T13:36:20;0.68;;;0.68;;
1402;SDS011;696;48.546;9.896;2022-11-20T13:38:48;0.98;;;0.68;;
1402;SDS011;696;48.546;9.896;2022-11-20T13:44:13;2.35;;;0.80;;
1402;SDS011;696;48.546;9.896;2022-11-20T13:46:49;3.70;;;0.90;;
1402;SDS011;696;48.546;9.896;2022-11-20T13:49:17;0.95;;;0.80;;
1402;SDS011;696;48.546;9.896;2022-11-20T13:51:48;0.80;;;0.75;;
1402;SDS011;696;48.546;9.896;2022-11-20T13:54:34;1.17;;;0.85;;
1402;SDS011;696;48.546;9.896;2022-11-20T13:57:33;0.80;;;0.80;;
1402;SDS011;696;48.546;9.896;2022-11-20T14:00:19;1.15;;;0.80;;
1402;SDS011;696;48.546;9.896;2022-11-20T14:02:51;0.65;;;0.60;;
1402;SDS011;696;48.546;9.896;2022-11-20T14:05:25;0.90;;;0.60;;
1402;SDS011;696;48.546;9.896;2022-11-20T14:07:50;2.22;;;1.00;;
1402;SDS011;696;48.546;9.896;2022-11-20T14:10:34;0.68;;;0.68;;
1402;SDS011;696;48.546;9.896;2022-11-20T14:13:09;1.38;;;1.13;;
1402;SDS011;696;48.546;9.896;2022-11-20T14:15:36;0.98;;;0.80;;
1402;SDS011;696;48.546;9.896;2022-11-20T14:18:11;1.92;;;1.00;;
1402;SDS011;696;48.546;9.896;2022-11-20T14:20:43;1.10;;;0.80;;
1402;SDS011;696;48.546;9.896;2022-11-20T14:23:09;0.60;;;0.60;;
1402;SDS011;696;48.546;9.896;2022-11-20T14:25:35;0.75;;;0.68;;
1402;SDS011;696;48.546;9.896;2022-11-20T14:28:01;0.93;;;0.70;;
1402;SDS011;696;48.546;9.896;2022-11-20T14:30:28;0.77;;;0.70;;
1402;SDS011;696;48.546;9.896;2022-11-20T14:33:15;1.88;;;0.70;;
1402;SDS011;696;48.546;9.896;2022-11-20T14:35:44;1.13;;;0.75;;
1402;SDS011;696;48.546;9.896;2022-11-20T14:38:11;0.95;;;0.70;;
1402;SDS011;696;48.546;9.896;2022-11-20T14:40:42;0.93;;;0.68;;
1402;SDS011;696;48.546;9.896;2022-11-20T14:43:27;1.02;;;0.80;;
1402;SDS011;696;48.546;9.896;2022-11-20T14:45:57;0.98;;;0.82;;
1402;SDS011;696;48.546;9.896;2022-11-20T14:48:45;1.13;;;1.00;;
1402;SDS011;696;48.546;9.896;2022-11-20T14:54:16;2.30;;;1.27;;
1402;SDS011;696;48.546;9.896;2022-11-20T14:56:59;3.30;;;1.83;;
1402;SDS011;696;48.546;9.896;2022-11-20T14:59:27;1.75;;;1.55;;
1402;SDS011;696;48.546;9.896;2022-11-20T15:02:15;1.85;;;1.30;;
1402;SDS011;696;48.546;9.896;2022-11-20T15:04:59;1.67;;;1.20;;
1402;SDS011;696;48.546;9.896;2022-11-20T15:07:41;10.07;;;1.30;;
1402;SDS011;696;48.546;9.896;2022-11-20T15:12:50;3.30;;;1.02;;
1402;SDS011;696;48.546;9.896;2022-11-20T15:15:20;1.17;;;0.90;;
1402;SDS011;696;48.546;9.896;2022-11-20T15:17:48;1.40;;;1.00;;
1402;SDS011;696;48.546;9.896;2022-11-20T15:20:14;1.60;;;1.30;;
1402;SDS011;696;48.546;9.896;2022-11-20T15:22:41;6.03;;;1.20;;
1402;SDS011;696;48.546;9.896;2022-11-20T15:25:13;2.00;;;1.00;;
1402;SDS011;696;48.546;9.896;2022-11-20T15:27:40;2.03;;;1.38;;
1402;SDS011;696;48.546;9.896;2022-11-20T15:30:13;1.33;;;1.13;;
1402;SDS011;696;48.546;9.896;2022-11-20T15:32:40;1.88;;;0.93;;
1402;SDS011;696;48.546;9.896;2022-11-20T15:35:07;1.35;;;1.00;;
1402;SDS011;696;48.546;9.896;2022-11-20T15:37:33;3.03;;;1.33;;
1402;SDS011;696;48.546;9.896;2022-11-20T15:39:58;3.20;;;1.30;;
1402;SDS011;696;48.546;9.896;2022-11-20T15:42:23;1.48;;;1.10;;
1402;SDS011;696;48.546;9.896;2022-11-20T15:44:49;1.10;;;0.85;;
1402;SDS011;696;48.546;9.896;2022-11-20T15:47:14;1.40;;;1.10;;
1402;SDS011;696;48.546;9.896;2022-11-20T15:49:42;1.30;;;0.95;;
1402;SDS011;696;48.546;9.896;2022-11-20T15:52:08;1.67;;;1.27;;
1402;SDS011;696;48.546;9.896;2022-11-20T15:54:34;3.20;;;1.70;;
1402;SDS011;696;48.546;9.896;2022-11-20T15:56:59;2.42;;;1.60;;
1402;SDS011;696;48.546;9.896;2022-11-20T15:59:25;4.05;;;2.05;;
1402;SDS011;696;48.546;9.896;2022-11-20T16:01:51;2.97;;;1.55;;
1402;SDS011;696;48.546;9.896;2022-11-20T16:04:16;5.13;;;2.25;;
1402;SDS011;696;48.546;9.896;2022-11-20T16:06:43;3.80;;;2.25;;
1402;SDS011;696;48.546;9.896;2022-11-20T16:09:08;10.05;;;2.33;;
1402;SDS011;696;48.546;9.896;2022-11-20T16:11:34;2.97;;;2.38;;
1402;SDS011;696;48.546;9.896;2022-11-20T16:14:01;4.43;;;2.63;;
1402;SDS011;696;48.546;9.896;2022-11-20T16:16:46;3.33;;;2.33;;
1402;SDS011;696;48.546;9.896;2022-11-20T16:19:12;13.93;;;2.22;;
1402;SDS011;696;48.546;9.896;2022-11-20T16:21:39;5.88;;;2.40;;
1402;SDS011;696;48.546;9.896;2022-11-20T16:24:06;3.95;;;1.88;;
1402;SDS011;696;48.546;9.896;2022-11-20T16:26:33;2.65;;;2.00;;
1402;SDS011;696;48.546;9.896;2022-11-20T16:29:03;3.78;;;2.10;;
1402;SDS011;696;48.546;9.896;2022-11-20T16:31:38;1.77;;;1.55;;
1402;SDS011;696;48.546;9.896;2022-11-20T16:34:05;2.05;;;1.20;;
1402;SDS011;696;48.546;9.896;2022-11-20T16:36:32;0.90;;;0.90;;
1402;SDS011;696;48.546;9.896;2022-11-20T16:38:58;2.05;;;1.02;;
1402;SDS011;696;48.546;9.896;2022-11-20T16:41:25;2.90;;;0.93;;
1402;SDS011;696;48.546;9.896;2022-11-20T16:43:52;1.42;;;0.95;;
1402;SDS011;696;48.546;9.896;2022-11-20T16:46:22;1.20;;;1.05;;
1402;SDS011;696;48.546;9.896;2022-11-20T16:49:11;2.42;;;1.25;;
1402;SDS011;696;48.546;9.896;2022-11-20T16:51:37;2.90;;;1.50;;
1402;SDS011;696;48.546;9.896;2022-11-20T16:54:06;2.47;;;1.45;;
1402;SDS011;696;48.546;9.896;2022-11-20T16:56:33;1.23;;;1.10;;
1402;SDS011;696;48.546;9.896;2022-11-20T16:58:59;0.73;;;0.73;;
1402;SDS011;696;48.546;9.896;2022-11-20T17:01:25;3.05;;;1.10;;
1402;SDS011;696;48.546;9.896;2022-11-20T17:03:53;1.65;;;1.17;;
1402;SDS011;696;48.546;9.896;2022-11-20T17:06:21;0.80;;;0.80;;
1402;SDS011;696;48.546;9.896;2022-11-20T17:08:47;1.10;;;0.98;;
1402;SDS011;696;48.546;9.896;2022-11-20T17:11:14;1.85;;;1.33;;
1402;SDS011;696;48.546;9.896;2022-11-20T17:13:41;2.65;;;1.60;;
1402;SDS011;696;48.546;9.896;2022-11-20T17:16:08;2.78;;;1.52;;
1402;SDS011;696;48.546;9.896;2022-11-20T17:18:41;1.50;;;1.40;;
1402;SDS011;696;48.546;9.896;2022-11-20T17:21:08;2.85;;;1.42;;
1402;SDS011;696;48.546;9.896;2022-11-20T17:23:35;3.03;;;1.75;;